sensor_id;sensor_type;location;lat;lon;timestamp;temperature;humidity
81136;DHT22;70622;50.886;3.890;2023-07-13T00:00:01;16.60;69.80
81136;DHT22;70622;50.886;3.890;2023-07-13T00:02:29;16.70;69.80
81136;DHT22;70622;50.886;3.890;2023-07-13T00:04:55;16.60;70.20
81136;DHT22;70622;50.886;3.890;2023-07-13T00:07:21;16.40;70.50
81136;DHT22;70622;50.886;3.890;2023-07-13T00:09:47;16.40;70.60
81136;DHT22;70622;50.886;3.890;2023-07-13T00:15:09;16.50;71.20
81136;DHT22;70622;50.886;3.890;2023-07-13T00:17:36;16.50;71.30
81136;DHT22;70622;50.886;3.890;2023-07-13T00:20:04;16.40;71.30
81136;DHT22;70622;50.886;3.890;2023-07-13T00:22:30;16.40;71.30
81136;DHT22;70622;50.886;3.890;2023-07-13T00:24:55;16.50;71.30
81136;DHT22;70622;50.886;3.890;2023-07-13T00:27:22;16.50;71.20
81136;DHT22;70622;50.886;3.890;2023-07-13T00:29:48;16.40;71.40
81136;DHT22;70622;50.886;3.890;2023-07-13T00:32:14;16.40;71.60
81136;DHT22;70622;50.886;3.890;2023-07-13T00:34:40;16.40;71.90
81136;DHT22;70622;50.886;3.890;2023-07-13T00:37:06;16.30;72.00
81136;DHT22;70622;50.886;3.890;2023-07-13T00:39:33;16.40;71.80
81136;DHT22;70622;50.886;3.890;2023-07-13T00:42:00;16.40;72.00
81136;DHT22;70622;50.886;3.890;2023-07-13T00:44:26;16.30;71.80
81136;DHT22;70622;50.886;3.890;2023-07-13T00:46:52;16.40;72.10
81136;DHT22;70622;50.886;3.890;2023-07-13T00:49:20;16.30;72.30
81136;DHT22;70622;50.886;3.890;2023-07-13T00:51:56;16.30;72.60
81136;DHT22;70622;50.886;3.890;2023-07-13T00:54:26;16.30;72.60
81136;DHT22;70622;50.886;3.890;2023-07-13T00:56:56;16.30;72.70
81136;DHT22;70622;50.886;3.890;2023-07-13T00:59:23;16.30;72.90
81136;DHT22;70622;50.886;3.890;2023-07-13T01:01:49;16.20;72.80
81136;DHT22;70622;50.886;3.890;2023-07-13T01:04:16;16.30;73.10
81136;DHT22;70622;50.886;3.890;2023-07-13T01:06:42;16.20;73.40
81136;DHT22;70622;50.886;3.890;2023-07-13T01:09:10;16.20;73.50
81136;DHT22;70622;50.886;3.890;2023-07-13T01:11:36;16.20;73.70
81136;DHT22;70622;50.886;3.890;2023-07-13T01:14:03;16.20;73.60
81136;DHT22;70622;50.886;3.890;2023-07-13T01:16:32;16.30;73.60
81136;DHT22;70622;50.886;3.890;2023-07-13T01:18:58;16.30;73.50
81136;DHT22;70622;50.886;3.890;2023-07-13T01:21:26;16.20;73.60
81136;DHT22;70622;50.886;3.890;2023-07-13T01:23:52;16.20;73.70
81136;DHT22;70622;50.886;3.890;2023-07-13T01:26:17;16.20;73.90
81136;DHT22;70622;50.886;3.890;2023-07-13T01:28:43;16.20;73.60
81136;DHT22;70622;50.886;3.890;2023-07-13T01:31:09;16.20;73.70
81136;DHT22;70622;50.886;3.890;2023-07-13T01:33:38;16.20;73.70
81136;DHT22;70622;50.886;3.890;2023-07-13T01:36:06;16.20;73.70
81136;DHT22;70622;50.886;3.890;2023-07-13T01:38:32;16.10;74.00
81136;DHT22;70622;50.886;3.890;2023-07-13T01:40:59;16.20;74.00
81136;DHT22;70622;50.886;3.890;2023-07-13T01:43:25;16.20;74.20
81136;DHT22;70622;50.886;3.890;2023-07-13T01:45:50;16.20;74.00
81136;DHT22;70622;50.886;3.890;2023-07-13T01:48:16;16.20;73.90
81136;DHT22;70622;50.886;3.890;2023-07-13T01:50:42;16.20;74.20
81136;DHT22;70622;50.886;3.890;2023-07-13T01:53:08;16.10;74.50
81136;DHT22;70622;50.886;3.890;2023-07-13T01:55:35;16.10;74.80
81136;DHT22;70622;50.886;3.890;2023-07-13T01:58:01;16.00;75.20
81136;DHT22;70622;50.886;3.890;2023-07-13T02:00:27;16.00;75.10
81136;DHT22;70622;50.886;3.890;2023-07-13T02:02:53;16.10;74.90
81136;DHT22;70622;50.886;3.890;2023-07-13T02:05:19;16.00;75.10
81136;DHT22;70622;50.886;3.890;2023-07-13T02:07:45;16.00;75.20
81136;DHT22;70622;50.886;3.890;2023-07-13T02:10:11;16.00;75.20
81136;DHT22;70622;50.886;3.890;2023-07-13T02:12:37;16.00;75.20
81136;DHT22;70622;50.886;3.890;2023-07-13T02:15:04;16.00;76.30
81136;DHT22;70622;50.886;3.890;2023-07-13T02:17:30;16.00;75.10
81136;DHT22;70622;50.886;3.890;2023-07-13T02:19:55;16.00;75.10
81136;DHT22;70622;50.886;3.890;2023-07-13T02:22:21;15.90;75.20
81136;DHT22;70622;50.886;3.890;2023-07-13T02:24:48;15.90;75.40
81136;DHT22;70622;50.886;3.890;2023-07-13T02:27:13;15.90;76.40
81136;DHT22;70622;50.886;3.890;2023-07-13T02:29:39;15.90;75.30
81136;DHT22;70622;50.886;3.890;2023-07-13T02:32:05;15.80;75.40
81136;DHT22;70622;50.886;3.890;2023-07-13T02:34:31;15.80;75.30
81136;DHT22;70622;50.886;3.890;2023-07-13T02:36:56;15.70;75.80
81136;DHT22;70622;50.886;3.890;2023-07-13T02:39:22;15.60;76.10
81136;DHT22;70622;50.886;3.890;2023-07-13T02:41:48;15.50;76.20
81136;DHT22;70622;50.886;3.890;2023-07-13T02:44:14;15.50;76.90
81136;DHT22;70622;50.886;3.890;2023-07-13T02:46:39;15.40;76.90
81136;DHT22;70622;50.886;3.890;2023-07-13T02:49:06;15.40;76.80
81136;DHT22;70622;50.886;3.890;2023-07-13T02:51:32;15.50;77.10
81136;DHT22;70622;50.886;3.890;2023-07-13T02:54:00;15.50;77.20
81136;DHT22;70622;50.886;3.890;2023-07-13T02:56:27;15.40;77.00
81136;DHT22;70622;50.886;3.890;2023-07-13T02:58:54;15.20;77.10
81136;DHT22;70622;50.886;3.890;2023-07-13T03:01:20;15.20;77.90
81136;DHT22;70622;50.886;3.890;2023-07-13T03:03:48;15.10;78.20
81136;DHT22;70622;50.886;3.890;2023-07-13T03:06:14;15.20;78.20
81136;DHT22;70622;50.886;3.890;2023-07-13T03:08:40;15.20;78.20
81136;DHT22;70622;50.886;3.890;2023-07-13T03:11:08;15.20;78.20
81136;DHT22;70622;50.886;3.890;2023-07-13T03:13:36;15.20;78.30
81136;DHT22;70622;50.886;3.890;2023-07-13T03:16:03;15.20;78.40
81136;DHT22;70622;50.886;3.890;2023-07-13T03:18:29;15.20;78.50
81136;DHT22;70622;50.886;3.890;2023-07-13T03:20:54;15.10;78.60
81136;DHT22;70622;50.886;3.890;2023-07-13T03:23:21;15.00;79.00
81136;DHT22;70622;50.886;3.890;2023-07-13T03:25:47;14.90;79.10
81136;DHT22;70622;50.886;3.890;2023-07-13T03:28:13;14.80;79.60
81136;DHT22;70622;50.886;3.890;2023-07-13T03:30:40;14.80;80.00
81136;DHT22;70622;50.886;3.890;2023-07-13T03:33:06;14.90;79.90
81136;DHT22;70622;50.886;3.890;2023-07-13T03:35:32;14.90;80.20
81136;DHT22;70622;50.886;3.890;2023-07-13T03:37:58;14.90;80.30
81136;DHT22;70622;50.886;3.890;2023-07-13T03:40:25;14.90;80.60
81136;DHT22;70622;50.886;3.890;2023-07-13T03:42:52;14.90;80.50
81136;DHT22;70622;50.886;3.890;2023-07-13T03:45:18;15.00;80.60
81136;DHT22;70622;50.886;3.890;2023-07-13T03:47:43;15.00;80.20
81136;DHT22;70622;50.886;3.890;2023-07-13T03:50:09;15.30;79.50
81136;DHT22;70622;50.886;3.890;2023-07-13T03:52:35;15.20;78.90
81136;DHT22;70622;50.886;3.890;2023-07-13T03:55:01;15.40;79.00
81136;DHT22;70622;50.886;3.890;2023-07-13T03:57:27;15.40;78.80
81136;DHT22;70622;50.886;3.890;2023-07-13T03:59:53;15.40;78.80
81136;DHT22;70622;50.886;3.890;2023-07-13T04:02:19;15.40;79.00
81136;DHT22;70622;50.886;3.890;2023-07-13T04:04:44;15.40;79.30
81136;DHT22;70622;50.886;3.890;2023-07-13T04:07:10;15.40;79.10
81136;DHT22;70622;50.886;3.890;2023-07-13T04:09:36;15.50;78.90
81136;DHT22;70622;50.886;3.890;2023-07-13T04:12:02;15.60;78.60
81136;DHT22;70622;50.886;3.890;2023-07-13T04:14:27;15.60;78.50
81136;DHT22;70622;50.886;3.890;2023-07-13T04:16:53;15.50;78.80
81136;DHT22;70622;50.886;3.890;2023-07-13T04:19:20;15.40;79.10
81136;DHT22;70622;50.886;3.890;2023-07-13T04:21:46;15.50;79.20
81136;DHT22;70622;50.886;3.890;2023-07-13T04:24:12;15.40;79.00
81136;DHT22;70622;50.886;3.890;2023-07-13T04:26:38;15.40;79.40
81136;DHT22;70622;50.886;3.890;2023-07-13T04:29:06;15.40;79.70
81136;DHT22;70622;50.886;3.890;2023-07-13T04:31:32;15.30;79.80
81136;DHT22;70622;50.886;3.890;2023-07-13T04:33:58;15.30;80.10
81136;DHT22;70622;50.886;3.890;2023-07-13T04:36:24;15.30;80.30
81136;DHT22;70622;50.886;3.890;2023-07-13T04:38:52;15.30;80.60
81136;DHT22;70622;50.886;3.890;2023-07-13T04:41:19;15.40;80.40
81136;DHT22;70622;50.886;3.890;2023-07-13T04:43:45;15.50;80.50
81136;DHT22;70622;50.886;3.890;2023-07-13T04:46:13;15.50;80.00
81136;DHT22;70622;50.886;3.890;2023-07-13T04:48:39;15.50;79.70
81136;DHT22;70622;50.886;3.890;2023-07-13T04:51:05;15.50;79.80
81136;DHT22;70622;50.886;3.890;2023-07-13T04:53:31;15.60;79.80
81136;DHT22;70622;50.886;3.890;2023-07-13T04:55:58;15.70;79.30
81136;DHT22;70622;50.886;3.890;2023-07-13T04:58:24;15.90;78.60
81136;DHT22;70622;50.886;3.890;2023-07-13T05:00:50;15.90;78.10
81136;DHT22;70622;50.886;3.890;2023-07-13T05:03:16;15.90;78.30
81136;DHT22;70622;50.886;3.890;2023-07-13T05:05:41;16.10;78.50
81136;DHT22;70622;50.886;3.890;2023-07-13T05:08:07;16.00;78.60
81136;DHT22;70622;50.886;3.890;2023-07-13T05:10:34;16.00;78.50
81136;DHT22;70622;50.886;3.890;2023-07-13T05:13:00;16.10;78.10
81136;DHT22;70622;50.886;3.890;2023-07-13T05:15:26;15.90;78.10
81136;DHT22;70622;50.886;3.890;2023-07-13T05:17:51;16.00;78.60
81136;DHT22;70622;50.886;3.890;2023-07-13T05:20:18;16.00;78.50
81136;DHT22;70622;50.886;3.890;2023-07-13T05:22:44;16.10;78.30
81136;DHT22;70622;50.886;3.890;2023-07-13T05:25:12;16.30;77.90
81136;DHT22;70622;50.886;3.890;2023-07-13T05:27:39;16.20;77.80
81136;DHT22;70622;50.886;3.890;2023-07-13T05:30:05;16.30;77.30
81136;DHT22;70622;50.886;3.890;2023-07-13T05:32:31;16.50;77.40
81136;DHT22;70622;50.886;3.890;2023-07-13T05:34:56;16.50;76.70
81136;DHT22;70622;50.886;3.890;2023-07-13T05:37:22;16.50;76.70
81136;DHT22;70622;50.886;3.890;2023-07-13T05:39:48;16.50;77.00
81136;DHT22;70622;50.886;3.890;2023-07-13T05:42:14;16.60;77.10
81136;DHT22;70622;50.886;3.890;2023-07-13T05:44:39;16.80;76.40
81136;DHT22;70622;50.886;3.890;2023-07-13T05:47:05;16.90;76.00
81136;DHT22;70622;50.886;3.890;2023-07-13T05:49:31;16.90;76.30
81136;DHT22;70622;50.886;3.890;2023-07-13T05:51:57;16.90;76.30
81136;DHT22;70622;50.886;3.890;2023-07-13T05:54:22;17.00;76.90
81136;DHT22;70622;50.886;3.890;2023-07-13T05:56:48;17.10;75.80
81136;DHT22;70622;50.886;3.890;2023-07-13T05:59:14;17.10;75.80
81136;DHT22;70622;50.886;3.890;2023-07-13T06:01:40;17.10;76.00
81136;DHT22;70622;50.886;3.890;2023-07-13T06:04:06;17.20;75.10
81136;DHT22;70622;50.886;3.890;2023-07-13T06:06:32;17.40;74.40
81136;DHT22;70622;50.886;3.890;2023-07-13T06:08:58;17.70;73.70
81136;DHT22;70622;50.886;3.890;2023-07-13T06:11:26;17.80;73.20
81136;DHT22;70622;50.886;3.890;2023-07-13T06:13:53;17.80;74.30
81136;DHT22;70622;50.886;3.890;2023-07-13T06:16:19;17.80;73.20
81136;DHT22;70622;50.886;3.890;2023-07-13T06:18:45;17.80;73.50
81136;DHT22;70622;50.886;3.890;2023-07-13T06:21:14;17.90;73.20
81136;DHT22;70622;50.886;3.890;2023-07-13T06:23:41;18.00;72.40
81136;DHT22;70622;50.886;3.890;2023-07-13T06:26:07;18.10;71.90
81136;DHT22;70622;50.886;3.890;2023-07-13T06:28:34;18.10;72.10
81136;DHT22;70622;50.886;3.890;2023-07-13T06:31:00;18.10;72.20
81136;DHT22;70622;50.886;3.890;2023-07-13T06:33:26;18.00;72.70
81136;DHT22;70622;50.886;3.890;2023-07-13T06:35:52;17.90;73.40
81136;DHT22;70622;50.886;3.890;2023-07-13T06:38:18;17.90;73.40
81136;DHT22;70622;50.886;3.890;2023-07-13T06:40:44;18.00;73.20
81136;DHT22;70622;50.886;3.890;2023-07-13T06:43:09;18.10;72.30
81136;DHT22;70622;50.886;3.890;2023-07-13T06:45:40;18.30;71.70
81136;DHT22;70622;50.886;3.890;2023-07-13T06:48:06;18.50;71.20
81136;DHT22;70622;50.886;3.890;2023-07-13T06:50:32;18.50;70.50
81136;DHT22;70622;50.886;3.890;2023-07-13T06:52:58;18.50;70.50
81136;DHT22;70622;50.886;3.890;2023-07-13T06:55:25;18.50;70.60
81136;DHT22;70622;50.886;3.890;2023-07-13T06:57:51;18.60;70.30
81136;DHT22;70622;50.886;3.890;2023-07-13T07:00:17;18.40;70.20
81136;DHT22;70622;50.886;3.890;2023-07-13T07:02:43;18.60;70.60
81136;DHT22;70622;50.886;3.890;2023-07-13T07:05:09;18.60;70.70
81136;DHT22;70622;50.886;3.890;2023-07-13T07:07:35;18.70;70.00
81136;DHT22;70622;50.886;3.890;2023-07-13T07:10:00;18.90;69.50
81136;DHT22;70622;50.886;3.890;2023-07-13T07:12:28;19.10;69.00
81136;DHT22;70622;50.886;3.890;2023-07-13T07:14:53;18.90;69.40
81136;DHT22;70622;50.886;3.890;2023-07-13T07:17:19;18.70;70.00
81136;DHT22;70622;50.886;3.890;2023-07-13T07:19:45;18.80;69.60
81136;DHT22;70622;50.886;3.890;2023-07-13T07:22:10;18.70;69.00
81136;DHT22;70622;50.886;3.890;2023-07-13T07:24:36;18.80;68.90
81136;DHT22;70622;50.886;3.890;2023-07-13T07:27:02;18.60;69.80
81136;DHT22;70622;50.886;3.890;2023-07-13T07:29:27;18.50;70.30
81136;DHT22;70622;50.886;3.890;2023-07-13T07:31:53;18.30;70.50
81136;DHT22;70622;50.886;3.890;2023-07-13T07:34:19;18.40;70.80
81136;DHT22;70622;50.886;3.890;2023-07-13T07:36:45;18.70;70.20
81136;DHT22;70622;50.886;3.890;2023-07-13T07:39:11;19.00;68.90
81136;DHT22;70622;50.886;3.890;2023-07-13T07:41:37;19.20;68.60
81136;DHT22;70622;50.886;3.890;2023-07-13T07:44:03;19.10;67.90
81136;DHT22;70622;50.886;3.890;2023-07-13T07:46:29;19.30;67.40
81136;DHT22;70622;50.886;3.890;2023-07-13T07:48:56;19.50;66.70
81136;DHT22;70622;50.886;3.890;2023-07-13T07:51:22;19.70;65.90
81136;DHT22;70622;50.886;3.890;2023-07-13T07:53:48;19.90;66.20
81136;DHT22;70622;50.886;3.890;2023-07-13T07:56:14;19.90;65.50
81136;DHT22;70622;50.886;3.890;2023-07-13T07:58:42;20.00;64.70
81136;DHT22;70622;50.886;3.890;2023-07-13T08:01:08;20.20;63.90
81136;DHT22;70622;50.886;3.890;2023-07-13T08:03:34;20.30;63.70
81136;DHT22;70622;50.886;3.890;2023-07-13T08:06:00;20.30;63.30
81136;DHT22;70622;50.886;3.890;2023-07-13T08:08:25;20.30;63.20
81136;DHT22;70622;50.886;3.890;2023-07-13T08:10:51;20.40;63.40
81136;DHT22;70622;50.886;3.890;2023-07-13T08:13:17;20.40;63.00
81136;DHT22;70622;50.886;3.890;2023-07-13T08:15:43;20.50;62.70
81136;DHT22;70622;50.886;3.890;2023-07-13T08:18:08;19.90;63.50
81136;DHT22;70622;50.886;3.890;2023-07-13T08:20:38;19.80;64.20
81136;DHT22;70622;50.886;3.890;2023-07-13T08:23:03;20.10;64.10
81136;DHT22;70622;50.886;3.890;2023-07-13T08:25:29;20.10;64.10
81136;DHT22;70622;50.886;3.890;2023-07-13T08:27:55;20.00;64.00
81136;DHT22;70622;50.886;3.890;2023-07-13T08:30:21;20.20;64.10
81136;DHT22;70622;50.886;3.890;2023-07-13T08:32:46;20.20;63.20
81136;DHT22;70622;50.886;3.890;2023-07-13T08:35:12;20.40;62.90
81136;DHT22;70622;50.886;3.890;2023-07-13T08:37:39;20.40;62.40
81136;DHT22;70622;50.886;3.890;2023-07-13T08:40:05;20.70;62.20
81136;DHT22;70622;50.886;3.890;2023-07-13T08:42:55;20.70;60.50
81136;DHT22;70622;50.886;3.890;2023-07-13T08:45:43;20.70;60.80
81136;DHT22;70622;50.886;3.890;2023-07-13T08:48:16;21.00;59.90
81136;DHT22;70622;50.886;3.890;2023-07-13T08:50:50;20.90;58.00
81136;DHT22;70622;50.886;3.890;2023-07-13T08:53:17;20.90;58.40
81136;DHT22;70622;50.886;3.890;2023-07-13T08:55:44;21.10;58.00
81136;DHT22;70622;50.886;3.890;2023-07-13T08:58:15;21.00;57.20
81136;DHT22;70622;50.886;3.890;2023-07-13T09:03:58;21.30;56.30
81136;DHT22;70622;50.886;3.890;2023-07-13T09:06:34;21.40;55.90
81136;DHT22;70622;50.886;3.890;2023-07-13T09:14:53;21.20;56.50
81136;DHT22;70622;50.886;3.890;2023-07-13T09:17:36;21.40;56.40
81136;DHT22;70622;50.886;3.890;2023-07-13T09:22:41;21.20;56.90
81136;DHT22;70622;50.886;3.890;2023-07-13T09:25:29;21.50;56.10
81136;DHT22;70622;50.886;3.890;2023-07-13T09:28:11;21.80;56.50
81136;DHT22;70622;50.886;3.890;2023-07-13T09:33:35;21.40;56.80
81136;DHT22;70622;50.886;3.890;2023-07-13T09:36:05;21.60;54.60
81136;DHT22;70622;50.886;3.890;2023-07-13T09:38:43;21.70;53.70
81136;DHT22;70622;50.886;3.890;2023-07-13T09:44:18;22.10;53.20
81136;DHT22;70622;50.886;3.890;2023-07-13T09:46:55;22.00;53.20
81136;DHT22;70622;50.886;3.890;2023-07-13T09:49:30;21.60;54.60
81136;DHT22;70622;50.886;3.890;2023-07-13T09:52:09;21.40;55.60
81136;DHT22;70622;50.886;3.890;2023-07-13T09:54:36;21.60;54.60
81136;DHT22;70622;50.886;3.890;2023-07-13T09:57:11;21.90;54.90
81136;DHT22;70622;50.886;3.890;2023-07-13T09:59:42;22.30;52.30
81136;DHT22;70622;50.886;3.890;2023-07-13T10:02:32;22.40;51.90
81136;DHT22;70622;50.886;3.890;2023-07-13T10:07:44;22.30;52.50
81136;DHT22;70622;50.886;3.890;2023-07-13T10:10:16;22.10;53.40
81136;DHT22;70622;50.886;3.890;2023-07-13T10:12:44;21.80;51.70
81136;DHT22;70622;50.886;3.890;2023-07-13T10:15:16;21.80;52.40
81136;DHT22;70622;50.886;3.890;2023-07-13T10:17:43;21.90;52.80
81136;DHT22;70622;50.886;3.890;2023-07-13T10:20:10;22.30;51.90
81136;DHT22;70622;50.886;3.890;2023-07-13T10:22:49;22.50;51.20
81136;DHT22;70622;50.886;3.890;2023-07-13T10:25:20;22.60;49.90
81136;DHT22;70622;50.886;3.890;2023-07-13T10:27:50;22.30;50.20
81136;DHT22;70622;50.886;3.890;2023-07-13T10:30:24;21.90;52.10
81136;DHT22;70622;50.886;3.890;2023-07-13T10:32:54;21.70;53.00
81136;DHT22;70622;50.886;3.890;2023-07-13T10:35:21;21.80;53.40
81136;DHT22;70622;50.886;3.890;2023-07-13T10:37:56;21.90;51.80
81136;DHT22;70622;50.886;3.890;2023-07-13T10:40:34;22.30;50.60
81136;DHT22;70622;50.886;3.890;2023-07-13T10:43:06;22.70;49.60
81136;DHT22;70622;50.886;3.890;2023-07-13T10:45:36;22.70;49.40
81136;DHT22;70622;50.886;3.890;2023-07-13T10:48:03;22.60;49.50
81136;DHT22;70622;50.886;3.890;2023-07-13T10:50:30;23.00;49.20
81136;DHT22;70622;50.886;3.890;2023-07-13T10:53:17;22.90;48.70
81136;DHT22;70622;50.886;3.890;2023-07-13T11:01:40;23.40;48.50
81136;DHT22;70622;50.886;3.890;2023-07-13T11:04:12;23.50;46.90
81136;DHT22;70622;50.886;3.890;2023-07-13T11:06:41;23.80;47.40
81136;DHT22;70622;50.886;3.890;2023-07-13T11:09:39;24.10;47.30
81136;DHT22;70622;50.886;3.890;2023-07-13T11:17:46;23.80;49.70
81136;DHT22;70622;50.886;3.890;2023-07-13T11:22:52;22.90;51.10
81136;DHT22;70622;50.886;3.890;2023-07-13T11:25:33;22.10;54.50
81136;DHT22;70622;50.886;3.890;2023-07-13T11:33:31;19.00;72.10
81136;DHT22;70622;50.886;3.890;2023-07-13T11:36:16;18.20;73.50
81136;DHT22;70622;50.886;3.890;2023-07-13T11:38:43;17.60;76.00
81136;DHT22;70622;50.886;3.890;2023-07-13T11:41:25;17.30;79.50
81136;DHT22;70622;50.886;3.890;2023-07-13T11:44:02;17.30;79.60
81136;DHT22;70622;50.886;3.890;2023-07-13T11:46:30;17.30;79.30
81136;DHT22;70622;50.886;3.890;2023-07-13T11:48:55;17.60;80.70
81136;DHT22;70622;50.886;3.890;2023-07-13T11:51:25;17.90;78.90
81136;DHT22;70622;50.886;3.890;2023-07-13T11:53:53;18.10;77.50
81136;DHT22;70622;50.886;3.890;2023-07-13T11:56:19;18.50;78.60
81136;DHT22;70622;50.886;3.890;2023-07-13T11:58:50;19.10;76.80
81136;DHT22;70622;50.886;3.890;2023-07-13T12:01:21;19.30;74.00
81136;DHT22;70622;50.886;3.890;2023-07-13T12:03:48;19.80;73.00
81136;DHT22;70622;50.886;3.890;2023-07-13T12:06:28;20.00;69.30
81136;DHT22;70622;50.886;3.890;2023-07-13T12:08:59;19.90;68.80
81136;DHT22;70622;50.886;3.890;2023-07-13T12:11:25;20.10;69.50
81136;DHT22;70622;50.886;3.890;2023-07-13T12:13:51;20.00;70.60
81136;DHT22;70622;50.886;3.890;2023-07-13T12:16:31;19.90;68.40
81136;DHT22;70622;50.886;3.890;2023-07-13T12:19:01;20.10;70.70
81136;DHT22;70622;50.886;3.890;2023-07-13T12:21:33;20.20;68.90
81136;DHT22;70622;50.886;3.890;2023-07-13T12:24:00;20.50;68.50
81136;DHT22;70622;50.886;3.890;2023-07-13T12:26:28;21.00;67.60
81136;DHT22;70622;50.886;3.890;2023-07-13T12:28:56;21.40;66.00
81136;DHT22;70622;50.886;3.890;2023-07-13T12:31:35;21.80;63.70
81136;DHT22;70622;50.886;3.890;2023-07-13T12:39:48;22.10;62.50
81136;DHT22;70622;50.886;3.890;2023-07-13T12:42:26;22.60;63.20
81136;DHT22;70622;50.886;3.890;2023-07-13T12:45:02;22.80;58.60
81136;DHT22;70622;50.886;3.890;2023-07-13T12:47:30;22.60;59.80
81136;DHT22;70622;50.886;3.890;2023-07-13T12:49:59;22.50;60.40
81136;DHT22;70622;50.886;3.890;2023-07-13T12:52:33;22.90;57.20
81136;DHT22;70622;50.886;3.890;2023-07-13T12:55:13;22.70;57.00
81136;DHT22;70622;50.886;3.890;2023-07-13T12:57:49;22.40;56.90
81136;DHT22;70622;50.886;3.890;2023-07-13T13:03:07;22.30;58.30
81136;DHT22;70622;50.886;3.890;2023-07-13T13:05:37;22.30;58.90
81136;DHT22;70622;50.886;3.890;2023-07-13T13:08:03;22.90;57.80
81136;DHT22;70622;50.886;3.890;2023-07-13T13:10:29;23.40;56.40
81136;DHT22;70622;50.886;3.890;2023-07-13T13:12:54;23.60;55.00
81136;DHT22;70622;50.886;3.890;2023-07-13T13:15:20;23.50;55.90
81136;DHT22;70622;50.886;3.890;2023-07-13T13:17:48;23.50;53.80
81136;DHT22;70622;50.886;3.890;2023-07-13T13:20:20;23.40;54.90
81136;DHT22;70622;50.886;3.890;2023-07-13T13:22:46;23.60;55.00
81136;DHT22;70622;50.886;3.890;2023-07-13T13:25:14;23.60;53.20
81136;DHT22;70622;50.886;3.890;2023-07-13T13:27:44;23.70;53.70
81136;DHT22;70622;50.886;3.890;2023-07-13T13:30:16;23.50;54.10
81136;DHT22;70622;50.886;3.890;2023-07-13T13:32:45;23.80;53.70
81136;DHT22;70622;50.886;3.890;2023-07-13T13:35:16;24.10;51.80
81136;DHT22;70622;50.886;3.890;2023-07-13T13:37:43;23.90;53.30
81136;DHT22;70622;50.886;3.890;2023-07-13T13:40:21;23.90;52.70
81136;DHT22;70622;50.886;3.890;2023-07-13T13:42:48;24.30;52.20
81136;DHT22;70622;50.886;3.890;2023-07-13T13:45:14;24.60;50.50
81136;DHT22;70622;50.886;3.890;2023-07-13T13:47:44;25.00;49.70
81136;DHT22;70622;50.886;3.890;2023-07-13T13:50:18;25.50;47.20
81136;DHT22;70622;50.886;3.890;2023-07-13T13:52:45;25.40;44.50
81136;DHT22;70622;50.886;3.890;2023-07-13T13:55:13;25.10;42.60
81136;DHT22;70622;50.886;3.890;2023-07-13T13:57:38;24.70;41.70
81136;DHT22;70622;50.886;3.890;2023-07-13T14:00:05;24.60;42.10
81136;DHT22;70622;50.886;3.890;2023-07-13T14:02:31;24.80;42.70
81136;DHT22;70622;50.886;3.890;2023-07-13T14:05:00;24.80;41.00
81136;DHT22;70622;50.886;3.890;2023-07-13T14:07:27;25.00;41.70
81136;DHT22;70622;50.886;3.890;2023-07-13T14:09:56;25.10;41.40
81136;DHT22;70622;50.886;3.890;2023-07-13T14:12:22;25.30;42.50
81136;DHT22;70622;50.886;3.890;2023-07-13T14:14:50;25.40;40.30
81136;DHT22;70622;50.886;3.890;2023-07-13T14:17:24;26.00;38.90
81136;DHT22;70622;50.886;3.890;2023-07-13T14:19:51;27.30;37.70
81136;DHT22;70622;50.886;3.890;2023-07-13T14:22:23;27.80;35.80
81136;DHT22;70622;50.886;3.890;2023-07-13T14:24:48;28.30;35.60
81136;DHT22;70622;50.886;3.890;2023-07-13T14:27:15;29.60;33.60
81136;DHT22;70622;50.886;3.890;2023-07-13T14:29:40;31.20;31.00
81136;DHT22;70622;50.886;3.890;2023-07-13T14:32:13;30.50;31.80
81136;DHT22;70622;50.886;3.890;2023-07-13T14:34:39;30.00;31.40
81136;DHT22;70622;50.886;3.890;2023-07-13T14:37:05;28.20;32.70
81136;DHT22;70622;50.886;3.890;2023-07-13T14:39:37;27.50;35.00
81136;DHT22;70622;50.886;3.890;2023-07-13T14:42:03;27.00;35.90
81136;DHT22;70622;50.886;3.890;2023-07-13T14:44:30;28.20;34.50
81136;DHT22;70622;50.886;3.890;2023-07-13T14:46:58;28.80;31.70
81136;DHT22;70622;50.886;3.890;2023-07-13T14:52:13;29.40;30.50
81136;DHT22;70622;50.886;3.890;2023-07-13T14:54:40;30.20;28.90
81136;DHT22;70622;50.886;3.890;2023-07-13T14:57:15;28.80;30.80
81136;DHT22;70622;50.886;3.890;2023-07-13T14:59:41;27.40;33.20
81136;DHT22;70622;50.886;3.890;2023-07-13T15:02:27;26.80;34.60
81136;DHT22;70622;50.886;3.890;2023-07-13T15:04:55;26.10;36.70
81136;DHT22;70622;50.886;3.890;2023-07-13T15:07:20;26.30;36.80
81136;DHT22;70622;50.886;3.890;2023-07-13T15:09:47;27.40;35.10
81136;DHT22;70622;50.886;3.890;2023-07-13T15:12:13;27.50;33.50
81136;DHT22;70622;50.886;3.890;2023-07-13T15:14:39;28.20;34.20
81136;DHT22;70622;50.886;3.890;2023-07-13T15:17:05;28.80;32.30
81136;DHT22;70622;50.886;3.890;2023-07-13T15:19:31;28.60;31.90
81136;DHT22;70622;50.886;3.890;2023-07-13T15:21:57;28.60;33.20
81136;DHT22;70622;50.886;3.890;2023-07-13T15:24:24;29.10;32.00
81136;DHT22;70622;50.886;3.890;2023-07-13T15:26:50;29.20;31.80
81136;DHT22;70622;50.886;3.890;2023-07-13T15:29:16;28.70;32.20
81136;DHT22;70622;50.886;3.890;2023-07-13T15:31:42;28.80;31.60
81136;DHT22;70622;50.886;3.890;2023-07-13T15:34:12;28.70;31.60
81136;DHT22;70622;50.886;3.890;2023-07-13T15:36:38;29.50;31.50
81136;DHT22;70622;50.886;3.890;2023-07-13T15:39:05;30.00;29.60
81136;DHT22;70622;50.886;3.890;2023-07-13T15:41:31;29.40;30.20
81136;DHT22;70622;50.886;3.890;2023-07-13T15:43:59;29.70;30.00
81136;DHT22;70622;50.886;3.890;2023-07-13T15:46:25;30.00;29.20
81136;DHT22;70622;50.886;3.890;2023-07-13T15:48:52;29.80;29.50
81136;DHT22;70622;50.886;3.890;2023-07-13T15:53:57;29.70;29.90
81136;DHT22;70622;50.886;3.890;2023-07-13T15:56:28;31.10;28.40
81136;DHT22;70622;50.886;3.890;2023-07-13T15:58:55;30.70;28.40
81136;DHT22;70622;50.886;3.890;2023-07-13T16:01:22;31.30;27.40
81136;DHT22;70622;50.886;3.890;2023-07-13T16:03:49;32.50;27.50
81136;DHT22;70622;50.886;3.890;2023-07-13T16:06:22;32.00;26.70
81136;DHT22;70622;50.886;3.890;2023-07-13T16:08:49;31.20;27.40
81136;DHT22;70622;50.886;3.890;2023-07-13T16:11:24;31.00;27.50
81136;DHT22;70622;50.886;3.890;2023-07-13T16:13:52;30.60;27.30
81136;DHT22;70622;50.886;3.890;2023-07-13T16:16:21;29.60;28.40
81136;DHT22;70622;50.886;3.890;2023-07-13T16:18:58;28.30;29.70
81136;DHT22;70622;50.886;3.890;2023-07-13T16:21:29;27.70;31.90
81136;DHT22;70622;50.886;3.890;2023-07-13T16:23:56;28.80;31.10
81136;DHT22;70622;50.886;3.890;2023-07-13T16:26:34;30.40;28.70
81136;DHT22;70622;50.886;3.890;2023-07-13T16:29:28;31.70;27.20
81136;DHT22;70622;50.886;3.890;2023-07-13T16:32:11;32.60;26.10